Munster-Telgte Airport


Codes: EDLT/
Name: Munster-Telgte Airport
City: Munster
Country: Germany
Elevation: 177 ft.

Photos at Munster-Telgte Airport


   Photos courtesy of SpottingLog. You can add your own sightings and photos by signing up for a free trial today.



No photos found.

Weather at Munster-Telgte Airport


Time (UTC)DescriptionTempratureWindCloud coverageVisibilityPressureHumidity
16-Jun-2024 03:00Light Rain14°C11 mph, SW73%10000m1007hPa73%
16-Jun-2024 06:00Light Rain13°C11 mph, S87%10000m1008hPa83%
16-Jun-2024 09:00Light Rain16°C16 mph, SW93%10000m1007hPa70%
16-Jun-2024 12:00Light Rain17°C16 mph, SW94%10000m1007hPa69%
16-Jun-2024 15:00Light Rain14°C13 mph, SW99%10000m1008hPa89%
16-Jun-2024 18:00Light Rain14°C11 mph, SW100%10000m1008hPa88%
16-Jun-2024 21:00Overcast Clouds12°C7 mph, S86%10000m1009hPa95%
17-Jun-2024 00:00Overcast Clouds12°C7 mph, S92%10000m1010hPa95%
17-Jun-2024 03:00Overcast Clouds13°C7 mph, S99%10000m1011hPa95%
17-Jun-2024 06:00Light Rain14°C9 mph, SW100%10000m1012hPa93%
17-Jun-2024 09:00Light Rain17°C11 mph, SW96%10000m1013hPa79%
17-Jun-2024 12:00Light Rain19°C9 mph, SW90%10000m1013hPa72%
17-Jun-2024 15:00Light Rain19°C9 mph, W95%10000m1013hPa71%
17-Jun-2024 18:00Light Rain18°C4 mph, W97%10000m1013hPa83%
17-Jun-2024 21:00Overcast Clouds14°C2 mph, W97%10000m1015hPa88%
18-Jun-2024 00:00Overcast Clouds13°C2 mph, SW98%10000m1015hPa91%
18-Jun-2024 03:00Broken Clouds12°C4 mph, SW54%10000m1015hPa94%
18-Jun-2024 06:00Broken Clouds15°C2 mph, SW73%10000m1016hPa87%
18-Jun-2024 09:00Overcast Clouds20°C2 mph, W93%10000m1016hPa70%
18-Jun-2024 12:00Light Rain22°C4 mph, W79%10000m1016hPa55%
18-Jun-2024 15:00Overcast Clouds22°C9 mph, NW100%10000m1015hPa58%
18-Jun-2024 18:00Light Rain18°C4 mph, NW100%10000m1016hPa77%
18-Jun-2024 21:00Light Rain14°C7 mph, N100%10000m1018hPa91%
19-Jun-2024 00:00Overcast Clouds13°C7 mph, N97%10000m1019hPa89%
19-Jun-2024 03:00Broken Clouds10°C7 mph, N73%10000m1020hPa96%
19-Jun-2024 06:00Scattered Clouds13°C7 mph, NW50%10000m1022hPa83%
19-Jun-2024 09:00Few Clouds17°C7 mph, NW15%10000m1023hPa64%
19-Jun-2024 12:00Scattered Clouds19°C9 mph, NW35%10000m1023hPa53%
19-Jun-2024 15:00Overcast Clouds20°C7 mph, N100%10000m1023hPa52%
19-Jun-2024 18:00Overcast Clouds18°C4 mph, N100%10000m1023hPa68%
19-Jun-2024 21:00Broken Clouds13°C7 mph, NE66%10000m1023hPa85%
20-Jun-2024 00:00Scattered Clouds11°C7 mph, E36%10000m1022hPa90%
20-Jun-2024 03:00Clear Sky10°C7 mph, E0%10000m1020hPa92%
20-Jun-2024 06:00Clear Sky14°C9 mph, E1%10000m1018hPa77%
20-Jun-2024 09:00Clear Sky20°C9 mph, E6%10000m1017hPa61%
20-Jun-2024 12:00Scattered Clouds24°C9 mph, E37%10000m1014hPa53%
20-Jun-2024 15:00Overcast Clouds24°C9 mph, E100%10000m1011hPa68%
20-Jun-2024 18:00Overcast Clouds24°C7 mph, E88%10000m1009hPa79%
20-Jun-2024 21:00Overcast Clouds22°C7 mph, SE97%10000m1007hPa86%
21-Jun-2024 00:00Heavy Intensity Rain19°C4 mph, S99%10000m1006hPa91%